Time;durP1;ratioP1;P1;durP2;ratioP2;P2;SDS_P1;SDS_P2;PMS_P1;PMS_P2;Temp;Humidity;BMP_temperature;BMP_pressure;BME280_temperature;BME280_humidity;BME280_pressure;Samples;Min_cycle;Max_cycle;Signal;HPM_P1;HPM_P2
2024/02/04 00:00:13;;;;;;;10.45;7.40;;;;;;;;;;6268560;28;24415;-74
2024/02/04 00:03:15;;;;;;;10.75;7.38;;;;;;;;;;6260588;28;24431;-74
2024/02/04 00:06:17;;;;;;;10.40;7.15;;;;;;;;;;6264312;28;24439;-74
2024/02/04 00:09:20;;;;;;;11.13;7.22;;;;;;;;;;6269607;28;24415;-74
2024/02/04 00:12:21;;;;;;;10.18;6.82;;;;;;;;;;6265143;28;24423;-74
2024/02/04 00:15:23;;;;;;;10.70;7.07;;;;;;;;;;6265811;28;24847;-73
2024/02/04 00:18:25;;;;;;;9.30;6.85;;;;;;;;;;6268880;28;24439;-74
2024/02/04 00:21:27;;;;;;;10.30;6.82;;;;;;;;;;6263995;28;24427;-74
2024/02/04 00:24:30;;;;;;;9.05;7.15;;;;;;;;;;6268836;28;25153;-74
2024/02/04 00:27:31;;;;;;;8.97;6.47;;;;;;;;;;6266094;28;24426;-73
2024/02/04 00:30:33;;;;;;;10.27;7.07;;;;;;;;;;6265656;28;24447;-74
2024/02/04 00:33:34;;;;;;;9.87;6.90;;;;;;;;;;6266385;28;24856;-75
2024/02/04 00:36:36;;;;;;;9.40;6.40;;;;;;;;;;6268296;28;24423;-75
2024/02/04 00:39:40;;;;;;;9.30;6.90;;;;;;;;;;6253115;28;24434;-74
2024/02/04 00:42:41;;;;;;;9.52;6.95;;;;;;;;;;6268499;28;24427;-74
2024/02/04 00:45:43;;;;;;;11.05;6.97;;;;;;;;;;6265317;28;24446;-74
2024/02/04 00:48:44;;;;;;;10.75;7.20;;;;;;;;;;6266258;28;25147;-74
2024/02/04 00:51:46;;;;;;;8.77;6.27;;;;;;;;;;6264334;28;24424;-74
2024/02/04 00:54:49;;;;;;;8.60;6.60;;;;;;;;;;6267208;28;24431;-73
2024/02/04 00:57:51;;;;;;;10.02;6.93;;;;;;;;;;6265045;28;24847;-74
2024/02/04 01:00:52;;;;;;;8.90;6.43;;;;;;;;;;6266227;28;24851;-74
2024/02/04 01:03:54;;;;;;;10.30;6.95;;;;;;;;;;6268356;28;24831;-74
2024/02/04 01:06:55;;;;;;;8.85;6.60;;;;;;;;;;6263077;28;24522;-74
2024/02/04 01:09:58;;;;;;;10.00;6.95;;;;;;;;;;6267939;28;24439;-75
2024/02/04 01:13:00;;;;;;;9.45;6.20;;;;;;;;;;6268052;28;24465;-74
2024/02/04 01:16:02;;;;;;;10.90;6.83;;;;;;;;;;6264033;28;24446;-74
2024/02/04 01:19:03;;;;;;;11.33;7.27;;;;;;;;;;6262617;28;24518;-74
2024/02/04 01:22:05;;;;;;;8.60;6.77;;;;;;;;;;6265267;28;24793;-74
2024/02/04 01:25:09;;;;;;;9.98;7.05;;;;;;;;;;6264351;28;24471;-73
2024/02/04 01:28:11;;;;;;;9.70;7.10;;;;;;;;;;6266591;28;24627;-74
2024/02/04 01:31:12;;;;;;;9.10;6.70;;;;;;;;;;6262816;28;24823;-74
2024/02/04 01:34:14;;;;;;;10.65;6.75;;;;;;;;;;6265088;28;24407;-74
2024/02/04 01:37:15;;;;;;;10.93;7.45;;;;;;;;;;6262947;28;24423;-73
2024/02/04 01:40:18;;;;;;;9.57;7.05;;;;;;;;;;6263785;28;24407;-74
2024/02/04 01:43:21;;;;;;;9.53;6.60;;;;;;;;;;6266773;28;24438;-73
2024/02/04 01:46:22;;;;;;;10.30;7.03;;;;;;;;;;6262589;28;24606;-77
2024/02/04 01:49:25;;;;;;;9.48;6.97;;;;;;;;;;6263669;28;24477;-77
2024/02/04 01:52:27;;;;;;;10.63;6.87;;;;;;;;;;6262201;28;24744;-78
2024/02/04 01:55:30;;;;;;;9.52;7.18;;;;;;;;;;6261556;28;24835;-78
2024/02/04 01:58:32;;;;;;;10.48;7.15;;;;;;;;;;6267109;28;24430;-77
2024/02/04 02:01:35;;;;;;;9.82;7.03;;;;;;;;;;6264065;28;24851;-77
2024/02/04 02:04:36;;;;;;;10.50;7.07;;;;;;;;;;6262810;28;24426;-77
2024/02/04 02:07:38;;;;;;;12.30;7.10;;;;;;;;;;6262123;28;24422;-77
2024/02/04 02:10:46;;;;;;;30.23;19.88;;;;;;;;;;6265874;28;24414;-76
2024/02/04 02:13:50;;;;;;;84.13;46.10;;;;;;;;;;6263108;28;24682;-77
2024/02/04 02:16:52;;;;;;;105.25;54.88;;;;;;;;;;6263726;28;24839;-76
2024/02/04 02:19:57;;;;;;;79.23;39.17;;;;;;;;;;6262661;28;24424;-76
2024/02/04 02:23:11;;;;;;;67.05;34.70;;;;;;;;;;6262399;28;24491;-77
2024/02/04 02:26:16;;;;;;;86.90;40.85;;;;;;;;;;6263516;28;24430;-77
2024/02/04 02:29:18;;;;;;;41.45;23.00;;;;;;;;;;6266895;28;24443;-76
2024/02/04 02:32:20;;;;;;;19.67;12.02;;;;;;;;;;6262971;28;24835;-77
2024/02/04 02:35:22;;;;;;;11.52;7.78;;;;;;;;;;6264218;28;24419;-77
2024/02/04 02:38:26;;;;;;;11.25;7.50;;;;;;;;;;6263014;28;24545;-77
2024/02/04 02:41:31;;;;;;;10.45;7.00;;;;;;;;;;6263776;28;24824;-77
2024/02/04 02:44:33;;;;;;;11.50;7.60;;;;;;;;;;6262802;28;24423;-77
2024/02/04 02:47:35;;;;;;;9.15;6.90;;;;;;;;;;6263656;28;24661;-77
2024/02/04 02:50:37;;;;;;;9.55;7.28;;;;;;;;;;6262905;28;24848;-77
2024/02/04 02:53:38;;;;;;;12.68;7.53;;;;;;;;;;6263300;28;24450;-77
2024/02/04 02:56:41;;;;;;;9.75;6.68;;;;;;;;;;6262543;28;24847;-73
2024/02/04 02:59:43;;;;;;;10.90;6.88;;;;;;;;;;6256761;28;24416;-73
2024/02/04 03:02:44;;;;;;;8.15;6.60;;;;;;;;;;6263995;28;24435;-74
2024/02/04 03:05:46;;;;;;;8.93;6.80;;;;;;;;;;6262070;28;24447;-73
2024/02/04 03:08:47;;;;;;;8.95;6.80;;;;;;;;;;6253956;28;24842;-73
2024/02/04 03:11:50;;;;;;;10.02;6.45;;;;;;;;;;6250548;28;24448;-73
2024/02/04 03:14:52;;;;;;;10.30;7.07;;;;;;;;;;6264214;28;24544;-72
2024/02/04 03:17:53;;;;;;;10.07;7.22;;;;;;;;;;6267166;28;24430;-72
2024/02/04 03:20:55;;;;;;;13.02;7.43;;;;;;;;;;6265286;28;24861;-73
2024/02/04 03:23:56;;;;;;;10.52;7.40;;;;;;;;;;6265708;28;24436;-74
2024/02/04 03:27:00;;;;;;;8.57;7.00;;;;;;;;;;6267576;28;24851;-73
2024/02/04 03:30:01;;;;;;;10.02;7.35;;;;;;;;;;6265944;28;24430;-73
2024/02/04 03:33:03;;;;;;;9.00;6.97;;;;;;;;;;6270881;28;24478;-73
2024/02/04 03:36:04;;;;;;;8.52;6.85;;;;;;;;;;6263972;28;24420;-74
2024/02/04 03:39:06;;;;;;;11.15;8.10;;;;;;;;;;6265059;28;24430;-74
2024/02/04 03:42:09;;;;;;;10.30;7.85;;;;;;;;;;6265093;28;24502;-73
2024/02/04 03:45:10;;;;;;;11.38;8.05;;;;;;;;;;6267831;28;24827;-74
2024/02/04 03:48:12;;;;;;;10.88;8.07;;;;;;;;;;6268821;28;24427;-74
2024/02/04 03:51:17;;;;;;;10.45;8.00;;;;;;;;;;6269539;28;24423;-73
2024/02/04 03:54:19;;;;;;;11.57;8.13;;;;;;;;;;6266394;28;24422;-74
2024/02/04 03:57:22;;;;;;;12.30;8.25;;;;;;;;;;6267129;28;24503;-74
2024/02/04 04:00:23;;;;;;;10.83;8.20;;;;;;;;;;6268483;28;24652;-74
2024/02/04 04:03:25;;;;;;;11.37;8.70;;;;;;;;;;6272618;28;24982;-73
2024/02/04 04:06:26;;;;;;;11.57;8.38;;;;;;;;;;6269066;28;24434;-74
2024/02/04 04:09:28;;;;;;;12.00;8.50;;;;;;;;;;6267859;28;24430;-73
2024/02/04 04:12:31;;;;;;;11.88;8.52;;;;;;;;;;6265679;28;24509;-73
2024/02/04 04:15:33;;;;;;;9.82;7.65;;;;;;;;;;6265625;28;24638;-74
2024/02/04 04:18:35;;;;;;;12.40;8.75;;;;;;;;;;6268107;28;24447;-74
2024/02/04 04:21:38;;;;;;;11.82;8.73;;;;;;;;;;6266284;28;24886;-75
2024/02/04 04:24:39;;;;;;;11.43;8.55;;;;;;;;;;6267136;28;24423;-74
2024/02/04 04:27:43;;;;;;;13.82;9.35;;;;;;;;;;6266551;28;24662;-74
2024/02/04 04:30:44;;;;;;;11.65;9.45;;;;;;;;;;6266657;28;24459;-74
2024/02/04 04:33:46;;;;;;;11.68;9.23;;;;;;;;;;6267963;28;24424;-74
2024/02/04 04:36:47;;;;;;;11.77;9.80;;;;;;;;;;6271099;28;24420;-73
2024/02/04 04:39:49;;;;;;;13.35;9.88;;;;;;;;;;6266961;28;24428;-74
2024/02/04 04:42:52;;;;;;;12.85;10.48;;;;;;;;;;6265049;28;24621;-74
2024/02/04 04:45:54;;;;;;;13.63;10.85;;;;;;;;;;6262878;28;24679;-74
2024/02/04 04:48:57;;;;;;;14.82;11.43;;;;;;;;;;6265258;28;24827;-74
2024/02/04 04:51:59;;;;;;;15.60;12.25;;;;;;;;;;6267450;28;24515;-74
2024/02/04 04:55:01;;;;;;;15.10;12.32;;;;;;;;;;6263946;28;24428;-74
2024/02/04 04:58:04;;;;;;;16.40;12.83;;;;;;;;;;6269929;28;24439;-74
2024/02/04 05:01:06;;;;;;;17.23;13.23;;;;;;;;;;6266477;28;24448;-74
2024/02/04 05:04:07;;;;;;;16.83;12.80;;;;;;;;;;6263743;28;24445;-74
2024/02/04 05:07:09;;;;;;;17.83;12.68;;;;;;;;;;6267028;28;24458;-74
2024/02/04 05:10:11;;;;;;;17.00;12.77;;;;;;;;;;6267810;28;24443;-74
2024/02/04 05:13:14;;;;;;;16.77;12.90;;;;;;;;;;6262440;28;24435;-74
2024/02/04 05:16:15;;;;;;;17.58;12.88;;;;;;;;;;6266190;28;24404;-74
2024/02/04 05:19:17;;;;;;;15.07;12.43;;;;;;;;;;6266565;28;24660;-74
2024/02/04 05:22:18;;;;;;;16.75;13.20;;;;;;;;;;6266335;28;24411;-73
2024/02/04 05:25:20;;;;;;;17.75;12.60;;;;;;;;;;6265607;28;24412;-74
2024/02/04 05:28:23;;;;;;;16.85;13.57;;;;;;;;;;6261893;28;24656;-74
2024/02/04 05:31:24;;;;;;;17.23;12.85;;;;;;;;;;6261468;28;24419;-74
2024/02/04 05:34:26;;;;;;;18.23;13.27;;;;;;;;;;6263489;28;24412;-74
2024/02/04 05:37:28;;;;;;;19.48;13.80;;;;;;;;;;6264923;28;24403;-74
2024/02/04 05:40:29;;;;;;;17.67;12.65;;;;;;;;;;6266755;28;24412;-73
2024/02/04 05:43:32;;;;;;;17.25;13.70;;;;;;;;;;6264212;28;24422;-73
2024/02/04 05:46:34;;;;;;;17.33;12.73;;;;;;;;;;6262725;28;24412;-74
2024/02/04 05:49:35;;;;;;;18.35;13.27;;;;;;;;;;6266240;28;24420;-74
2024/02/04 05:52:37;;;;;;;17.80;13.63;;;;;;;;;;6264396;28;24839;-74
2024/02/04 05:55:38;;;;;;;17.13;12.80;;;;;;;;;;6263095;28;24439;-74
2024/02/04 05:58:42;;;;;;;17.35;13.20;;;;;;;;;;6268538;28;24441;-74
2024/02/04 06:01:44;;;;;;;18.27;14.07;;;;;;;;;;6265924;28;24427;-74
2024/02/04 06:04:48;;;;;;;17.85;13.38;;;;;;;;;;6263652;28;24800;-74
2024/02/04 06:07:49;;;;;;;18.47;14.13;;;;;;;;;;6264417;28;24444;-74
2024/02/04 06:10:51;;;;;;;18.30;14.07;;;;;;;;;;6263076;28;24419;-74
2024/02/04 06:13:54;;;;;;;20.33;14.97;;;;;;;;;;6262470;28;24470;-73
2024/02/04 06:16:55;;;;;;;18.80;14.82;;;;;;;;;;6264266;28;24483;-74
2024/02/04 06:20:00;;;;;;;18.42;14.82;;;;;;;;;;6260715;28;24431;-74
2024/02/04 06:23:01;;;;;;;20.63;14.80;;;;;;;;;;6261975;28;24438;-74
2024/02/04 06:26:03;;;;;;;18.75;14.55;;;;;;;;;;6265462;28;24430;-77
2024/02/04 06:29:06;;;;;;;20.50;14.73;;;;;;;;;;6264354;28;24491;-74
2024/02/04 06:32:08;;;;;;;19.63;15.03;;;;;;;;;;6262558;28;24583;-73
2024/02/04 06:35:09;;;;;;;19.90;14.83;;;;;;;;;;6262554;28;24820;-74
2024/02/04 06:38:11;;;;;;;19.40;14.37;;;;;;;;;;6265375;28;24442;-74
2024/02/04 06:41:12;;;;;;;18.90;14.50;;;;;;;;;;6258783;28;24843;-73
2024/02/04 06:44:16;;;;;;;19.83;15.03;;;;;;;;;;6264997;28;24428;-74
2024/02/04 06:47:17;;;;;;;19.98;15.50;;;;;;;;;;6264852;28;24847;-73
2024/02/04 06:50:19;;;;;;;20.42;15.27;;;;;;;;;;6261192;28;24420;-74
2024/02/04 06:53:20;;;;;;;18.30;14.57;;;;;;;;;;6267441;28;24457;-74
2024/02/04 06:56:22;;;;;;;18.55;14.93;;;;;;;;;;6270190;28;24427;-74
2024/02/04 06:59:25;;;;;;;19.55;15.23;;;;;;;;;;6266943;28;24470;-74
2024/02/04 07:02:26;;;;;;;19.77;15.27;;;;;;;;;;6268167;28;24936;-74
2024/02/04 07:05:28;;;;;;;20.85;16.00;;;;;;;;;;6267491;28;24454;-74
2024/02/04 07:08:29;;;;;;;22.60;16.93;;;;;;;;;;6266916;28;24679;-74
2024/02/04 07:11:31;;;;;;;21.80;17.10;;;;;;;;;;6270403;28;24817;-74
2024/02/04 07:14:34;;;;;;;22.95;17.88;;;;;;;;;;6269607;28;24621;-74
2024/02/04 07:17:35;;;;;;;22.75;17.17;;;;;;;;;;6271734;28;24412;-74
2024/02/04 07:20:37;;;;;;;24.58;18.38;;;;;;;;;;6268239;28;24434;-74
2024/02/04 07:23:38;;;;;;;23.08;17.45;;;;;;;;;;6269450;28;24817;-74
2024/02/04 07:26:40;;;;;;;23.77;17.48;;;;;;;;;;6268846;28;24433;-74
2024/02/04 07:29:43;;;;;;;22.73;16.73;;;;;;;;;;6271553;28;24590;-74
2024/02/04 07:32:45;;;;;;;22.55;17.08;;;;;;;;;;6261498;28;24721;-74
2024/02/04 07:35:46;;;;;;;20.67;16.10;;;;;;;;;;6265912;28;24423;-74
2024/02/04 07:38:48;;;;;;;21.05;16.27;;;;;;;;;;6267087;28;24670;-76
2024/02/04 07:41:50;;;;;;;20.73;16.05;;;;;;;;;;6268703;28;24831;-78
2024/02/04 07:44:53;;;;;;;20.85;15.50;;;;;;;;;;6267313;28;24424;-78
2024/02/04 07:47:54;;;;;;;17.95;14.55;;;;;;;;;;6265668;28;24436;-77
2024/02/04 07:50:56;;;;;;;18.17;14.20;;;;;;;;;;6267381;28;24922;-76
2024/02/04 07:53:57;;;;;;;19.30;14.57;;;;;;;;;;6267207;28;24424;-76
2024/02/04 07:56:59;;;;;;;19.67;14.57;;;;;;;;;;6267397;28;24423;-76
2024/02/04 08:00:05;;;;;;;17.52;13.73;;;;;;;;;;6267724;28;24415;-77
2024/02/04 08:03:06;;;;;;;17.48;13.45;;;;;;;;;;6265962;28;24890;-76
2024/02/04 08:06:10;;;;;;;15.88;13.25;;;;;;;;;;6263901;28;24426;-76
2024/02/04 08:09:11;;;;;;;17.00;12.68;;;;;;;;;;6264313;28;24408;-76
2024/02/04 08:12:13;;;;;;;16.58;12.38;;;;;;;;;;6265455;28;24426;-76
2024/02/04 08:15:16;;;;;;;19.23;13.18;;;;;;;;;;6269035;28;24630;-77
2024/02/04 08:18:18;;;;;;;12.55;10.68;;;;;;;;;;6266363;28;24422;-77
2024/02/04 08:21:19;;;;;;;14.85;11.07;;;;;;;;;;6267671;28;24848;-77
2024/02/04 08:24:21;;;;;;;14.65;10.90;;;;;;;;;;6267552;28;24775;-77
2024/02/04 08:27:22;;;;;;;13.52;10.02;;;;;;;;;;6264434;28;24442;-76
2024/02/04 08:30:26;;;;;;;12.52;9.77;;;;;;;;;;6265173;28;24878;-77
2024/02/04 08:33:28;;;;;;;12.05;9.93;;;;;;;;;;6264099;28;24428;-77
2024/02/04 08:36:30;;;;;;;11.95;9.80;;;;;;;;;;6265111;28;24420;-75
2024/02/04 08:39:32;;;;;;;12.68;9.43;;;;;;;;;;6255151;28;24455;-77
2024/02/04 08:42:33;;;;;;;13.50;9.35;;;;;;;;;;6266370;28;24419;-76
2024/02/04 08:45:36;;;;;;;13.33;10.67;;;;;;;;;;6266429;28;24435;-77
2024/02/04 08:48:38;;;;;;;15.02;11.77;;;;;;;;;;6264943;28;24431;-74
2024/02/04 08:51:39;;;;;;;16.50;12.45;;;;;;;;;;6266108;28;24472;-74
2024/02/04 08:54:41;;;;;;;17.80;13.88;;;;;;;;;;6265294;28;25070;-74
2024/02/04 08:57:42;;;;;;;18.42;14.43;;;;;;;;;;6266451;28;24431;-74
2024/02/04 09:00:46;;;;;;;18.77;15.13;;;;;;;;;;6265617;28;24434;-73
2024/02/04 09:03:47;;;;;;;19.40;15.80;;;;;;;;;;6265417;28;24466;-74
2024/02/04 09:06:49;;;;;;;25.40;18.02;;;;;;;;;;6266136;28;24436;-74
2024/02/04 09:09:51;;;;;;;22.60;17.73;;;;;;;;;;6264051;28;24424;-74
2024/02/04 09:12:53;;;;;;;20.88;16.83;;;;;;;;;;6266268;28;24427;-76
2024/02/04 09:15:57;;;;;;;20.88;16.73;;;;;;;;;;6263182;28;24515;-74
2024/02/04 09:18:58;;;;;;;21.23;17.92;;;;;;;;;;6266546;28;24435;-74
2024/02/04 09:22:01;;;;;;;24.65;19.92;;;;;;;;;;6265511;28;24427;-74
2024/02/04 09:25:03;;;;;;;28.35;22.35;;;;;;;;;;6263174;28;24406;-74
2024/02/04 09:28:05;;;;;;;27.35;21.40;;;;;;;;;;6262989;28;24470;-74
2024/02/04 09:31:10;;;;;;;30.67;24.55;;;;;;;;;;6264804;28;24811;-74
2024/02/04 09:34:12;;;;;;;34.95;27.80;;;;;;;;;;6263836;28;24614;-74
2024/02/04 09:37:14;;;;;;;36.80;28.50;;;;;;;;;;6266014;28;24434;-74
2024/02/04 09:40:15;;;;;;;35.42;28.45;;;;;;;;;;6265352;28;24859;-75
2024/02/04 09:43:18;;;;;;;39.95;30.73;;;;;;;;;;6264597;28;24457;-74
2024/02/04 09:46:22;;;;;;;41.47;31.42;;;;;;;;;;6263837;28;24527;-74
2024/02/04 09:49:24;;;;;;;39.28;29.27;;;;;;;;;;6266292;28;24598;-74
2024/02/04 09:52:29;;;;;;;38.03;29.67;;;;;;;;;;6263869;28;24438;-74
2024/02/04 09:55:32;;;;;;;36.85;28.48;;;;;;;;;;6252841;28;24474;-75
2024/02/04 09:58:33;;;;;;;36.00;27.90;;;;;;;;;;6265209;28;24412;-76
2024/02/04 10:01:37;;;;;;;33.10;26.20;;;;;;;;;;6265404;28;24508;-77
2024/02/04 10:04:38;;;;;;;31.10;25.20;;;;;;;;;;6262855;28;24415;-77
2024/02/04 10:07:40;;;;;;;28.45;22.30;;;;;;;;;;6265387;28;24420;-77
2024/02/04 10:10:42;;;;;;;25.13;20.02;;;;;;;;;;6263786;28;24409;-77
2024/02/04 10:13:45;;;;;;;24.70;19.52;;;;;;;;;;6262006;28;24478;-77
2024/02/04 10:16:48;;;;;;;22.37;18.60;;;;;;;;;;6263423;28;24439;-77
2024/02/04 10:19:50;;;;;;;21.88;18.48;;;;;;;;;;6263574;28;24422;-77
2024/02/04 10:22:52;;;;;;;20.48;17.27;;;;;;;;;;6264075;28;24420;-76
2024/02/04 10:25:58;;;;;;;21.50;18.13;;;;;;;;;;6263283;28;24430;-78
2024/02/04 10:28:59;;;;;;;20.60;17.97;;;;;;;;;;6261610;28;24524;-76
2024/02/04 10:32:03;;;;;;;20.50;16.20;;;;;;;;;;6263330;28;24839;-76
2024/02/04 10:35:05;;;;;;;20.00;16.40;;;;;;;;;;6261173;28;25037;-77
2024/02/04 10:38:07;;;;;;;20.17;16.47;;;;;;;;;;6263464;28;24657;-77
2024/02/04 10:41:09;;;;;;;17.13;14.60;;;;;;;;;;6262523;28;24780;-77
2024/02/04 10:44:12;;;;;;;14.55;12.95;;;;;;;;;;6265807;28;24431;-77
2024/02/04 10:47:18;;;;;;;16.33;12.63;;;;;;;;;;6262682;28;25107;-79
2024/02/04 10:50:20;;;;;;;13.95;11.95;;;;;;;;;;6263726;28;24514;-77
2024/02/04 10:53:23;;;;;;;13.48;11.07;;;;;;;;;;6263799;28;24498;-77
2024/02/04 10:56:26;;;;;;;11.90;10.60;;;;;;;;;;6263656;28;24498;-78
2024/02/04 10:59:29;;;;;;;11.20;10.00;;;;;;;;;;6262244;28;24415;-77
2024/02/04 11:02:33;;;;;;;11.05;9.23;;;;;;;;;;6262965;28;24427;-77
2024/02/04 11:05:35;;;;;;;10.40;8.98;;;;;;;;;;6265043;28;24443;-77
2024/02/04 11:08:38;;;;;;;11.60;9.83;;;;;;;;;;6261469;28;24477;-77
2024/02/04 11:11:41;;;;;;;12.43;10.05;;;;;;;;;;6260314;28;24426;-77
2024/02/04 11:14:45;;;;;;;12.07;10.70;;;;;;;;;;6260954;28;24836;-76
2024/02/04 11:18:07;;;;;;;11.80;10.00;;;;;;;;;;6264545;28;24424;-77
2024/02/04 11:21:20;;;;;;;12.00;9.82;;;;;;;;;;6245451;28;24514;-77
2024/02/04 11:24:31;;;;;;;12.15;10.52;;;;;;;;;;6259842;28;24930;-77
2024/02/04 11:27:33;;;;;;;11.95;10.55;;;;;;;;;;6263451;28;24555;-77
2024/02/04 11:30:35;;;;;;;12.65;11.07;;;;;;;;;;6264160;28;24457;-75
2024/02/04 11:33:37;;;;;;;13.45;11.60;;;;;;;;;;6262690;28;25106;-77
2024/02/04 11:36:41;;;;;;;15.07;13.43;;;;;;;;;;6261567;28;24435;-77
2024/02/04 11:39:48;;;;;;;17.30;14.10;;;;;;;;;;6264155;28;24594;-77
2024/02/04 11:42:50;;;;;;;15.63;13.48;;;;;;;;;;6264886;28;24481;-77
2024/02/04 11:45:53;;;;;;;15.65;13.23;;;;;;;;;;6267441;28;24461;-77
2024/02/04 11:48:55;;;;;;;15.10;13.03;;;;;;;;;;6268610;28;24809;-78
2024/02/04 11:51:58;;;;;;;16.75;13.18;;;;;;;;;;6268314;28;24486;-77
2024/02/04 11:54:59;;;;;;;15.60;13.23;;;;;;;;;;6268620;28;24435;-78
2024/02/04 11:58:01;;;;;;;15.07;12.82;;;;;;;;;;6267165;28;24431;-78
2024/02/04 12:01:03;;;;;;;15.57;13.87;;;;;;;;;;6267171;28;24939;-77
2024/02/04 12:04:11;;;;;;;15.50;13.10;;;;;;;;;;6264930;28;24431;-77
2024/02/04 12:07:15;;;;;;;13.55;11.55;;;;;;;;;;6269759;28;24435;-78
2024/02/04 12:10:16;;;;;;;15.93;11.77;;;;;;;;;;6266669;28;24411;-77
2024/02/04 12:13:19;;;;;;;13.10;11.10;;;;;;;;;;6264142;28;25071;-77
2024/02/04 12:16:21;;;;;;;11.68;10.20;;;;;;;;;;6266732;28;25466;-74
2024/02/04 12:19:23;;;;;;;12.48;10.98;;;;;;;;;;6266560;28;24422;-73
2024/02/04 12:22:25;;;;;;;13.63;11.13;;;;;;;;;;6256822;28;24415;-72
2024/02/04 12:25:29;;;;;;;12.82;11.45;;;;;;;;;;6261358;28;24422;-74
2024/02/04 12:28:31;;;;;;;15.48;11.63;;;;;;;;;;6264312;28;24412;-73
2024/02/04 12:31:33;;;;;;;13.75;11.27;;;;;;;;;;6267107;28;24427;-73
2024/02/04 12:34:36;;;;;;;12.23;10.20;;;;;;;;;;6264748;28;24426;-73
2024/02/04 12:37:39;;;;;;;12.55;9.80;;;;;;;;;;6264684;28;24427;-73
2024/02/04 12:40:40;;;;;;;12.45;9.98;;;;;;;;;;6267509;28;24411;-73
2024/02/04 12:43:42;;;;;;;12.53;9.90;;;;;;;;;;6264470;28;24895;-74
2024/02/04 12:46:44;;;;;;;15.38;11.05;;;;;;;;;;6263491;28;24728;-74
2024/02/04 12:49:45;;;;;;;12.35;9.98;;;;;;;;;;6263825;28;24847;-74
2024/02/04 12:52:48;;;;;;;12.73;10.02;;;;;;;;;;6264570;28;24420;-74
2024/02/04 12:55:58;;;;;;;12.45;10.15;;;;;;;;;;6265479;28;24852;-73
2024/02/04 12:59:00;;;;;;;11.18;9.55;;;;;;;;;;6265659;28;24470;-73
2024/02/04 13:02:04;;;;;;;11.50;9.27;;;;;;;;;;6266142;28;24438;-74
2024/02/04 13:05:05;;;;;;;12.35;9.75;;;;;;;;;;6264947;28;24423;-74
2024/02/04 13:08:08;;;;;;;12.53;10.83;;;;;;;;;;6263640;28;24443;-73
2024/02/04 13:11:10;;;;;;;11.45;10.23;;;;;;;;;;6264583;28;24428;-73
2024/02/04 13:14:12;;;;;;;12.02;10.25;;;;;;;;;;6264646;28;24438;-74
2024/02/04 13:17:16;;;;;;;13.27;10.13;;;;;;;;;;6265063;28;24427;-74
2024/02/04 13:20:17;;;;;;;11.23;9.48;;;;;;;;;;6265130;28;24515;-74
2024/02/04 13:23:20;;;;;;;10.80;8.82;;;;;;;;;;6263075;28;24431;-74
2024/02/04 13:26:22;;;;;;;12.10;9.68;;;;;;;;;;6264314;28;24804;-74
2024/02/04 13:29:25;;;;;;;10.23;8.32;;;;;;;;;;6261083;28;24420;-74
2024/02/04 13:32:28;;;;;;;11.07;8.63;;;;;;;;;;6266476;28;24423;-74
2024/02/04 13:35:29;;;;;;;12.38;8.70;;;;;;;;;;6263673;28;24435;-74
2024/02/04 13:38:32;;;;;;;10.27;7.97;;;;;;;;;;6262945;28;24806;-74
2024/02/04 13:41:35;;;;;;;10.17;7.80;;;;;;;;;;6264740;28;24917;-74
2024/02/04 13:44:37;;;;;;;9.67;7.77;;;;;;;;;;6263605;28;24424;-73
2024/02/04 13:47:38;;;;;;;9.32;7.43;;;;;;;;;;6248407;28;24431;-74
2024/02/04 13:50:40;;;;;;;13.85;9.93;;;;;;;;;;6266206;28;24842;-74
2024/02/04 13:53:43;;;;;;;12.35;9.93;;;;;;;;;;6264263;28;25099;-74
2024/02/04 13:56:44;;;;;;;15.00;11.43;;;;;;;;;;6264802;28;24810;-74
2024/02/04 13:59:46;;;;;;;13.57;10.52;;;;;;;;;;6267497;28;24427;-74
2024/02/04 14:02:48;;;;;;;14.10;11.20;;;;;;;;;;6262732;28;24435;-74
2024/02/04 14:05:49;;;;;;;15.13;10.98;;;;;;;;;;6251652;28;24821;-74
2024/02/04 14:08:52;;;;;;;14.50;11.27;;;;;;;;;;6268197;28;24847;-74
2024/02/04 14:11:54;;;;;;;14.38;10.50;;;;;;;;;;6265641;28;24797;-74
2024/02/04 14:14:56;;;;;;;12.80;10.23;;;;;;;;;;6263108;28;24485;-74
2024/02/04 14:17:58;;;;;;;21.30;16.85;;;;;;;;;;6265201;28;24423;-75
2024/02/04 14:20:59;;;;;;;79.18;52.13;;;;;;;;;;6263967;28;24424;-74
2024/02/04 14:24:03;;;;;;;92.38;57.50;;;;;;;;;;6265745;28;24426;-75
2024/02/04 14:27:05;;;;;;;54.92;36.40;;;;;;;;;;6261809;28;24851;-74
2024/02/04 14:30:07;;;;;;;65.47;39.55;;;;;;;;;;6251023;28;24452;-75
2024/02/04 14:33:09;;;;;;;76.05;44.30;;;;;;;;;;6260178;28;24466;-74
2024/02/04 14:36:11;;;;;;;76.82;45.33;;;;;;;;;;6266018;28;24490;-75
2024/02/04 14:39:15;;;;;;;83.53;48.35;;;;;;;;;;6267258;28;24680;-73
2024/02/04 14:42:18;;;;;;;41.67;28.23;;;;;;;;;;6266108;28;24498;-75
2024/02/04 14:45:19;;;;;;;44.78;31.25;;;;;;;;;;6265825;28;24428;-74
2024/02/04 14:48:21;;;;;;;25.30;18.77;;;;;;;;;;6259983;28;24430;-74
2024/02/04 14:51:23;;;;;;;18.40;13.98;;;;;;;;;;6265998;28;24828;-74
2024/02/04 14:54:27;;;;;;;14.10;11.63;;;;;;;;;;6262501;28;24438;-74
2024/02/04 14:57:28;;;;;;;16.10;11.90;;;;;;;;;;6260820;28;24458;-74
2024/02/04 15:00:30;;;;;;;14.40;11.43;;;;;;;;;;6261260;28;24457;-74
2024/02/04 15:03:31;;;;;;;13.63;11.48;;;;;;;;;;6261156;28;24475;-74
2024/02/04 15:06:33;;;;;;;14.38;11.30;;;;;;;;;;6261754;28;24427;-74
2024/02/04 15:09:36;;;;;;;13.65;11.68;;;;;;;;;;6261985;28;24804;-73
2024/02/04 15:12:38;;;;;;;14.93;11.55;;;;;;;;;;6264515;28;24466;-72
2024/02/04 15:15:40;;;;;;;13.98;11.68;;;;;;;;;;6263232;28;24514;-73
2024/02/04 15:18:42;;;;;;;17.33;12.80;;;;;;;;;;6268004;28;25623;-73
2024/02/04 15:21:43;;;;;;;16.00;12.63;;;;;;;;;;6269139;28;24856;-75
2024/02/04 15:24:47;;;;;;;16.90;13.43;;;;;;;;;;6268129;28;24438;-74
2024/02/04 15:27:52;;;;;;;16.23;13.00;;;;;;;;;;6268668;28;24422;-75
2024/02/04 15:30:55;;;;;;;18.23;13.57;;;;;;;;;;6268030;28;24439;-75
2024/02/04 15:33:57;;;;;;;17.65;13.68;;;;;;;;;;6270684;28;24426;-75
2024/02/04 15:36:58;;;;;;;46.35;33.58;;;;;;;;;;6262558;28;24621;-74
2024/02/04 15:40:02;;;;;;;94.90;64.13;;;;;;;;;;6266598;28;24657;-74
2024/02/04 15:43:04;;;;;;;45.55;31.67;;;;;;;;;;6269908;28;24847;-74
2024/02/04 15:46:09;;;;;;;27.50;20.40;;;;;;;;;;6268637;28;24435;-75
2024/02/04 15:49:12;;;;;;;20.20;15.75;;;;;;;;;;6266918;28;24540;-77
2024/02/04 15:52:14;;;;;;;20.40;14.60;;;;;;;;;;6267636;28;24507;-77
2024/02/04 15:55:19;;;;;;;18.73;14.37;;;;;;;;;;6267782;28;24828;-78
2024/02/04 15:58:21;;;;;;;18.77;14.80;;;;;;;;;;6270061;28;24402;-78
2024/02/04 16:01:24;;;;;;;18.27;14.77;;;;;;;;;;6266934;28;24449;-77
2024/02/04 16:04:26;;;;;;;18.27;14.48;;;;;;;;;;6265527;28;24420;-77
2024/02/04 16:07:28;;;;;;;19.30;15.38;;;;;;;;;;6265630;28;24554;-77
2024/02/04 16:10:31;;;;;;;21.13;15.73;;;;;;;;;;6266012;28;24410;-76
2024/02/04 16:13:34;;;;;;;20.05;15.80;;;;;;;;;;6263334;28;24816;-77
2024/02/04 16:16:37;;;;;;;20.17;15.10;;;;;;;;;;6265236;28;24698;-78
2024/02/04 16:19:42;;;;;;;21.33;16.40;;;;;;;;;;6263561;28;25168;-78
2024/02/04 16:22:43;;;;;;;23.35;15.98;;;;;;;;;;6268093;28;24483;-78
2024/02/04 16:25:47;;;;;;;20.73;15.68;;;;;;;;;;6266135;28;24446;-78
2024/02/04 16:28:48;;;;;;;20.07;15.43;;;;;;;;;;6268618;28;24483;-78
2024/02/04 16:31:53;;;;;;;20.08;16.02;;;;;;;;;;6268418;28;24431;-77
2024/02/04 16:34:55;;;;;;;23.52;16.30;;;;;;;;;;6267527;28;24495;-78
2024/02/04 16:37:57;;;;;;;20.55;15.73;;;;;;;;;;6267542;28;24419;-77
2024/02/04 16:41:01;;;;;;;21.98;15.68;;;;;;;;;;6265515;28;24432;-78
2024/02/04 16:44:03;;;;;;;23.77;16.33;;;;;;;;;;6260994;28;24429;-77
2024/02/04 16:47:05;;;;;;;22.45;16.20;;;;;;;;;;6265207;28;25169;-77
2024/02/04 16:50:07;;;;;;;22.97;16.57;;;;;;;;;;6263353;28;24420;-77
2024/02/04 16:53:10;;;;;;;21.20;16.63;;;;;;;;;;6266060;28;24424;-77
2024/02/04 16:56:18;;;;;;;24.50;16.90;;;;;;;;;;6265409;28;24538;-74
2024/02/04 16:59:19;;;;;;;22.65;17.50;;;;;;;;;;6266423;28;24626;-74
2024/02/04 17:02:22;;;;;;;22.50;17.40;;;;;;;;;;6264434;28;24423;-73
2024/02/04 17:05:24;;;;;;;23.38;18.00;;;;;;;;;;6265331;28;24431;-74
2024/02/04 17:08:26;;;;;;;22.70;17.20;;;;;;;;;;6262236;28;24445;-74
2024/02/04 17:11:30;;;;;;;25.73;17.83;;;;;;;;;;6265360;28;24461;-74
2024/02/04 17:14:34;;;;;;;24.38;18.63;;;;;;;;;;6265555;28;24805;-74
2024/02/04 17:17:37;;;;;;;23.20;17.95;;;;;;;;;;6267192;28;24431;-74
2024/02/04 17:20:54;;;;;;;25.80;18.88;;;;;;;;;;6265134;28;25206;-73
2024/02/04 17:23:59;;;;;;;24.17;18.85;;;;;;;;;;6265605;28;24429;-74
2024/02/04 17:27:04;;;;;;;23.85;18.40;;;;;;;;;;6267234;28;24446;-73
2024/02/04 17:30:08;;;;;;;22.33;18.00;;;;;;;;;;6263530;28;24435;-73
2024/02/04 17:33:10;;;;;;;26.63;19.48;;;;;;;;;;6265244;28;24431;-74
2024/02/04 17:36:12;;;;;;;197.43;111.22;;;;;;;;;;6268296;28;24431;-73
2024/02/04 17:39:15;;;;;;;118.78;68.03;;;;;;;;;;6269020;28;24427;-75
2024/02/04 17:42:18;;;;;;;73.82;44.53;;;;;;;;;;6267518;28;24462;-75
2024/02/04 17:45:20;;;;;;;97.22;55.83;;;;;;;;;;6266699;28;24419;-74